Arcadia, Michigan
Current Conditions -  °F | °C
As of 4:33 PM on Wednesday 26 Nov 2014 (Local Time) from KFKS Reporting Station
Overcast Overcast  
Wind Chill: -2°   Ceiling: 2700
Heat Index: -2°   Visibility: 10mi
Dew Point: -3°   Wind: 0mph
Humidity: 90%   Direction: NA
Pressure: 30.15"   Gusts: NA
Location:  44.49°N, 86.23°W
Report Text: KFKS 262133Z AUTO 00000KT 10SM BKN027 OVC035 M01/M03 A3015 RMK AO2 T10151030
Loading
Personal Weather Stations






























Interactive Weather Map New forecast layout! Learn more

10-Day Weather Forecast

Advertisements
Track Severe Weather on mobile